Time;durP1;ratioP1;P1;durP2;ratioP2;P2;SDS_P1;SDS_P2;PMS_P1;PMS_P2;Temp;Humidity;BMP_temperature;BMP_pressure;BME280_temperature;BME280_humidity;BME280_pressure;Samples;Min_cycle;Max_cycle;Signal;HPM_P1;HPM_P2
2023/09/12 00:01:57;;;;;;;;;;;;;;;;;;4994455;28;19928;-73
2023/09/12 00:04:23;;;;;;;;;;;;;;;;;;4995497;28;19917;-73
2023/09/12 00:06:49;;;;;;;;;;;;;;;;;;5003775;28;19929;-73
2023/09/12 00:09:15;;;;;;;;;;;;;;;;;;5002253;28;19914;-73
2023/09/12 00:11:41;;;;;;;;;;;;;;;;;;4995342;28;19910;-73
2023/09/12 00:14:08;;;;;;;;;;;;;;;;;;5002055;28;19928;-74
2023/09/12 00:16:34;;;;;;;;;;;;;;;;;;4997528;28;20278;-74
2023/09/12 00:19:00;;;;;;;;;;;;;;;;;;5001460;28;19917;-74
2023/09/12 00:21:26;;;;;;;;;;;;;;;;;;4995780;28;19906;-74
2023/09/12 00:23:51;;;;;;;;;;;;;;;;;;4995381;28;20297;-74
2023/09/12 00:26:17;;;;;;;;;;;;;;;;;;4995639;28;19925;-73
2023/09/12 00:28:43;;;;;;;;;;;;;;;;;;5003663;28;20101;-73
2023/09/12 00:31:11;;;;;;;;;;;;;;;;;;4995814;28;19916;-74
2023/09/12 00:33:39;;;;;;;;;;;;;;;;;;5012176;28;19912;-74
2023/09/12 00:36:05;;;;;;;;;;;;;;;;;;4995999;28;20407;-74
2023/09/12 00:38:31;;;;;;;;;;;;;;;;;;5006168;28;19906;-74
2023/09/12 00:40:57;;;;;;;;;;;;;;;;;;5002534;28;19993;-74
2023/09/12 00:43:23;;;;;;;;;;;;;;;;;;5002844;28;20369;-74
2023/09/12 00:45:49;;;;;;;;;;;;;;;;;;5015216;28;20039;-72
2023/09/12 00:48:15;;;;;;;;;;;;;;;;;;5004372;28;20052;-72
2023/09/12 00:50:41;;;;;;;;;;;;;;;;;;4997809;28;19916;-72
2023/09/12 00:53:07;;;;;;;;;;;;;;;;;;4999659;28;19933;-73
2023/09/12 00:55:32;;;;;;;;;;;;;;;;;;4994501;28;19999;-73
2023/09/12 00:57:58;;;;;;;;;;;;;;;;;;4994837;28;19905;-73
2023/09/12 01:00:25;;;;;;;;;;;;;;;;;;5001918;28;20371;-73
2023/09/12 01:02:53;;;;;;;;;;;;;;;;;;4993834;28;19912;-73
2023/09/12 01:05:19;;;;;;;;;;;;;;;;;;4994214;28;20277;-73
2023/09/12 01:07:44;;;;;;;;;;;;;;;;;;4994704;28;19913;-73
2023/09/12 01:10:10;;;;;;;;;;;;;;;;;;4993351;28;19906;-73
2023/09/12 01:12:36;;;;;;;;;;;;;;;;;;5003579;28;19913;-73
2023/09/12 01:15:05;;;;;;;;;;;;;;;;;;4996835;28;20000;-73
2023/09/12 01:17:31;;;;;;;;;;;;;;;;;;4997918;28;19963;-73
2023/09/12 01:19:57;;;;;;;;;;;;;;;;;;5000572;28;19913;-73
2023/09/12 01:22:23;;;;;;;;;;;;;;;;;;4994918;28;19906;-72
2023/09/12 01:24:49;;;;;;;;;;;;;;;;;;5001338;28;20394;-73
2023/09/12 01:27:15;;;;;;;;;;;;;;;;;;5010147;28;19909;-72
2023/09/12 01:29:41;;;;;;;;;;;;;;;;;;5001424;28;19909;-73
2023/09/12 01:32:07;;;;;;;;;;;;;;;;;;5000637;28;19937;-73
2023/09/12 01:34:33;;;;;;;;;;;;;;;;;;4999998;28;21504;-74
2023/09/12 01:36:59;;;;;;;;;;;;;;;;;;5000694;28;19959;-74
2023/09/12 01:39:25;;;;;;;;;;;;;;;;;;4993907;28;20000;-74
2023/09/12 01:41:50;;;;;;;;;;;;;;;;;;4993866;28;19906;-74
2023/09/12 01:44:16;;;;;;;;;;;;;;;;;;4993414;28;19914;-73
2023/09/12 01:46:42;;;;;;;;;;;;;;;;;;4997170;28;19912;-74
2023/09/12 01:49:08;;;;;;;;;;;;;;;;;;4996597;28;20365;-74
2023/09/12 01:51:34;;;;;;;;;;;;;;;;;;4994459;28;20053;-74
2023/09/12 01:54:00;;;;;;;;;;;;;;;;;;4997988;28;19913;-73
2023/09/12 01:56:26;;;;;;;;;;;;;;;;;;4993280;28;19914;-73
2023/09/12 01:58:52;;;;;;;;;;;;;;;;;;4999280;28;19906;-74
2023/09/12 02:01:18;;;;;;;;;;;;;;;;;;5001746;28;19906;-74
2023/09/12 02:03:44;;;;;;;;;;;;;;;;;;4985442;28;19910;-75
2023/09/12 02:06:10;;;;;;;;;;;;;;;;;;4993414;28;20361;-74
2023/09/12 02:08:36;;;;;;;;;;;;;;;;;;4992039;28;19913;-74
2023/09/12 02:11:01;;;;;;;;;;;;;;;;;;4993215;28;19910;-73
2023/09/12 02:13:27;;;;;;;;;;;;;;;;;;4994016;28;19906;-73
2023/09/12 02:15:53;;;;;;;;;;;;;;;;;;4999870;28;19999;-73
2023/09/12 02:18:19;;;;;;;;;;;;;;;;;;4993140;28;19906;-73
2023/09/12 02:20:46;;;;;;;;;;;;;;;;;;4991704;28;19906;-73
2023/09/12 02:23:12;;;;;;;;;;;;;;;;;;4992958;28;20313;-73
2023/09/12 02:25:37;;;;;;;;;;;;;;;;;;4992735;28;19906;-73
2023/09/12 02:28:03;;;;;;;;;;;;;;;;;;4992802;28;20477;-73
2023/09/12 02:30:29;;;;;;;;;;;;;;;;;;4992745;28;19992;-72
2023/09/12 02:32:55;;;;;;;;;;;;;;;;;;4993014;28;19906;-71
2023/09/12 02:35:21;;;;;;;;;;;;;;;;;;5001109;28;19912;-72
2023/09/12 02:37:47;;;;;;;;;;;;;;;;;;5004560;28;19912;-74
2023/09/12 02:40:18;;;;;;;;;;;;;;;;;;4997196;28;19905;-74
2023/09/12 02:42:44;;;;;;;;;;;;;;;;;;4999747;28;19932;-74
2023/09/12 02:45:10;;;;;;;;;;;;;;;;;;4999839;28;19906;-74
2023/09/12 02:47:43;;;;;;;;;;;;;;;;;;5004368;28;19905;-74
2023/09/12 02:50:09;;;;;;;;;;;;;;;;;;5003227;28;19912;-74
2023/09/12 02:52:35;;;;;;;;;;;;;;;;;;4992654;28;19933;-72
2023/09/12 02:55:00;;;;;;;;;;;;;;;;;;4998018;28;20377;-72
2023/09/12 02:57:26;;;;;;;;;;;;;;;;;;5003266;28;19906;-73
2023/09/12 02:59:52;;;;;;;;;;;;;;;;;;5006840;28;19905;-73
2023/09/12 03:02:18;;;;;;;;;;;;;;;;;;4991375;28;20278;-72
2023/09/12 03:04:44;;;;;;;;;;;;;;;;;;4999472;28;19910;-73
2023/09/12 03:07:10;;;;;;;;;;;;;;;;;;4991233;28;19906;-72
2023/09/12 03:09:38;;;;;;;;;;;;;;;;;;5002809;28;19905;-72
2023/09/12 03:12:03;;;;;;;;;;;;;;;;;;4997797;28;20361;-73
2023/09/12 03:14:29;;;;;;;;;;;;;;;;;;5000785;28;19906;-73
2023/09/12 03:16:55;;;;;;;;;;;;;;;;;;5012226;28;19905;-74
2023/09/12 03:19:21;;;;;;;;;;;;;;;;;;5011779;28;19910;-73
2023/09/12 03:21:47;;;;;;;;;;;;;;;;;;4992458;28;19906;-73
2023/09/12 03:24:13;;;;;;;;;;;;;;;;;;5006298;28;19905;-72
2023/09/12 03:26:39;;;;;;;;;;;;;;;;;;5010792;28;20012;-72
2023/09/12 03:29:05;;;;;;;;;;;;;;;;;;5006029;28;19906;-72
2023/09/12 03:31:31;;;;;;;;;;;;;;;;;;4992177;28;19909;-73
2023/09/12 03:33:57;;;;;;;;;;;;;;;;;;4992067;28;19951;-73
2023/09/12 03:36:23;;;;;;;;;;;;;;;;;;5000181;28;19905;-72
2023/09/12 03:38:49;;;;;;;;;;;;;;;;;;4992197;28;19906;-73
2023/09/12 03:41:15;;;;;;;;;;;;;;;;;;5008203;28;19960;-73
2023/09/12 03:43:41;;;;;;;;;;;;;;;;;;5000827;28;19941;-74
2023/09/12 03:46:07;;;;;;;;;;;;;;;;;;5007099;28;19905;-74
2023/09/12 03:48:33;;;;;;;;;;;;;;;;;;5006015;28;19913;-74
2023/09/12 03:51:02;;;;;;;;;;;;;;;;;;5003500;28;19910;-74
2023/09/12 03:53:28;;;;;;;;;;;;;;;;;;5001163;28;19929;-73
2023/09/12 03:55:54;;;;;;;;;;;;;;;;;;4998884;28;19914;-73
2023/09/12 03:58:20;;;;;;;;;;;;;;;;;;4990371;28;19906;-73
2023/09/12 04:00:48;;;;;;;;;;;;;;;;;;4995015;28;19909;-74
2023/09/12 04:03:16;;;;;;;;;;;;;;;;;;5008376;28;19916;-74
2023/09/12 04:05:41;;;;;;;;;;;;;;;;;;5001328;28;19913;-72
2023/09/12 04:08:07;;;;;;;;;;;;;;;;;;5002045;28;19906;-74
2023/09/12 04:10:33;;;;;;;;;;;;;;;;;;5004941;28;19909;-73
2023/09/12 04:12:59;;;;;;;;;;;;;;;;;;5008802;28;19975;-73
2023/09/12 04:15:25;;;;;;;;;;;;;;;;;;5001021;28;19965;-74
2023/09/12 04:17:51;;;;;;;;;;;;;;;;;;4996463;28;19912;-73
2023/09/12 04:20:17;;;;;;;;;;;;;;;;;;5011392;28;19912;-73
2023/09/12 04:22:43;;;;;;;;;;;;;;;;;;4995227;28;20292;-73
2023/09/12 04:25:09;;;;;;;;;;;;;;;;;;4993960;28;20254;-73
2023/09/12 04:27:35;;;;;;;;;;;;;;;;;;4993804;28;19906;-73
2023/09/12 04:30:01;;;;;;;;;;;;;;;;;;4995079;28;19906;-73
2023/09/12 04:32:26;;;;;;;;;;;;;;;;;;4994990;28;20008;-73
2023/09/12 04:34:52;;;;;;;;;;;;;;;;;;4994961;28;19909;-71
2023/09/12 04:37:18;;;;;;;;;;;;;;;;;;4995174;28;20375;-73
2023/09/12 04:39:44;;;;;;;;;;;;;;;;;;4994067;28;20389;-73
2023/09/12 04:42:10;;;;;;;;;;;;;;;;;;4995733;28;19997;-74
2023/09/12 04:44:36;;;;;;;;;;;;;;;;;;5003267;28;20272;-74
2023/09/12 04:47:02;;;;;;;;;;;;;;;;;;4993815;28;20437;-74
2023/09/12 04:49:28;;;;;;;;;;;;;;;;;;5002995;28;20278;-73
2023/09/12 04:51:54;;;;;;;;;;;;;;;;;;4995545;28;19941;-73
2023/09/12 04:54:20;;;;;;;;;;;;;;;;;;4995229;28;19906;-74
2023/09/12 04:56:47;;;;;;;;;;;;;;;;;;4999152;28;20392;-73
2023/09/12 04:59:12;;;;;;;;;;;;;;;;;;5000677;28;20442;-74
2023/09/12 05:01:38;;;;;;;;;;;;;;;;;;5002509;28;19906;-73
2023/09/12 05:04:04;;;;;;;;;;;;;;;;;;4988126;28;19909;-73
2023/09/12 05:06:30;;;;;;;;;;;;;;;;;;4996517;28;19906;-75
2023/09/12 05:08:56;;;;;;;;;;;;;;;;;;5010128;28;19905;-75
2023/09/12 05:11:23;;;;;;;;;;;;;;;;;;4999122;28;19910;-74
2023/09/12 05:13:48;;;;;;;;;;;;;;;;;;5002958;28;19910;-74
2023/09/12 05:16:15;;;;;;;;;;;;;;;;;;4995181;28;19910;-74
2023/09/12 05:18:41;;;;;;;;;;;;;;;;;;5002422;28;19906;-74
2023/09/12 05:21:07;;;;;;;;;;;;;;;;;;5008501;28;19916;-73
2023/09/12 05:23:33;;;;;;;;;;;;;;;;;;4994046;28;19996;-74
2023/09/12 05:25:58;;;;;;;;;;;;;;;;;;4993646;28;19909;-74
2023/09/12 05:28:24;;;;;;;;;;;;;;;;;;5010995;28;20377;-74
2023/09/12 05:30:50;;;;;;;;;;;;;;;;;;5005507;28;20372;-74
2023/09/12 05:33:16;;;;;;;;;;;;;;;;;;5005818;28;19906;-73
2023/09/12 05:35:44;;;;;;;;;;;;;;;;;;4996771;28;19913;-74
2023/09/12 05:38:10;;;;;;;;;;;;;;;;;;5013492;28;20300;-75
2023/09/12 05:40:35;;;;;;;;;;;;;;;;;;5005181;28;19905;-75
2023/09/12 05:43:01;;;;;;;;;;;;;;;;;;5004993;28;19905;-75
2023/09/12 05:45:29;;;;;;;;;;;;;;;;;;5003920;28;19918;-76
2023/09/12 05:47:55;;;;;;;;;;;;;;;;;;4993924;28;19906;-75
2023/09/12 05:50:21;;;;;;;;;;;;;;;;;;4993731;28;19905;-74
2023/09/12 05:52:47;;;;;;;;;;;;;;;;;;4997370;28;19906;-74
2023/09/12 05:57:52;;;;;;;;;;;;;;;;;;4991161;28;20014;-73
2023/09/12 06:00:18;;;;;;;;;;;;;;;;;;4992523;28;19912;-71
2023/09/12 06:02:44;;;;;;;;;;;;;;;;;;5007889;28;19992;-71
2023/09/12 06:05:10;;;;;;;;;;;;;;;;;;5007855;28;20067;-71
2023/09/12 06:07:36;;;;;;;;;;;;;;;;;;4992918;28;20288;-71
2023/09/12 06:10:03;;;;;;;;;;;;;;;;;;4992932;28;19905;-70
2023/09/12 06:12:29;;;;;;;;;;;;;;;;;;4991423;28;20342;-72
2023/09/12 06:14:55;;;;;;;;;;;;;;;;;;4992030;28;19905;-72
2023/09/12 06:17:21;;;;;;;;;;;;;;;;;;4992645;28;19906;-71
2023/09/12 06:19:49;;;;;;;;;;;;;;;;;;4992880;28;19906;-72
2023/09/12 06:22:15;;;;;;;;;;;;;;;;;;4992882;28;19912;-72
2023/09/12 06:24:41;;;;;;;;;;;;;;;;;;4992598;28;20755;-72
2023/09/12 06:27:07;;;;;;;;;;;;;;;;;;4992799;28;19949;-72
2023/09/12 06:29:32;;;;;;;;;;;;;;;;;;4992749;28;19913;-72
2023/09/12 06:31:58;;;;;;;;;;;;;;;;;;4992826;28;19988;-72
2023/09/12 06:34:24;;;;;;;;;;;;;;;;;;4992384;28;20347;-72
2023/09/12 06:36:50;;;;;;;;;;;;;;;;;;4992323;28;19905;-72
2023/09/12 06:39:16;;;;;;;;;;;;;;;;;;4992611;28;19936;-72
2023/09/12 06:41:42;;;;;;;;;;;;;;;;;;4992511;28;19913;-72
2023/09/12 06:44:08;;;;;;;;;;;;;;;;;;4992391;28;19945;-72
2023/09/12 06:46:37;;;;;;;;;;;;;;;;;;4992361;28;19924;-72
2023/09/12 06:49:03;;;;;;;;;;;;;;;;;;4991508;28;20000;-72
2023/09/12 06:51:29;;;;;;;;;;;;;;;;;;4992339;28;20004;-72
2023/09/12 06:53:55;;;;;;;;;;;;;;;;;;4992447;28;20020;-71
2023/09/12 06:56:21;;;;;;;;;;;;;;;;;;4991805;28;19914;-70
2023/09/12 06:58:47;;;;;;;;;;;;;;;;;;4992354;28;20000;-71
2023/09/12 07:01:13;;;;;;;;;;;;;;;;;;4992429;28;19916;-72
2023/09/12 07:03:38;;;;;;;;;;;;;;;;;;4992222;28;19905;-71
2023/09/12 07:06:05;;;;;;;;;;;;;;;;;;4992569;28;19948;-71
2023/09/12 07:08:31;;;;;;;;;;;;;;;;;;4992808;28;20386;-71
2023/09/12 07:10:57;;;;;;;;;;;;;;;;;;4992438;28;19910;-72
2023/09/12 07:13:23;;;;;;;;;;;;;;;;;;5023580;28;19910;-71
2023/09/12 07:15:49;;;;;;;;;;;;;;;;;;4992102;28;19913;-71
2023/09/12 07:18:15;;;;;;;;;;;;;;;;;;4992491;28;19910;-72
2023/09/12 07:20:40;;;;;;;;;;;;;;;;;;4992037;28;19914;-72
2023/09/12 07:23:07;;;;;;;;;;;;;;;;;;4991866;28;20340;-72
2023/09/12 07:25:33;;;;;;;;;;;;;;;;;;4990712;28;19941;-72
2023/09/12 07:27:59;;;;;;;;;;;;;;;;;;4992457;28;19958;-72
2023/09/12 07:30:25;;;;;;;;;;;;;;;;;;4991935;28;20254;-72
2023/09/12 07:32:51;;;;;;;;;;;;;;;;;;4990534;28;20332;-72
2023/09/12 07:35:17;;;;;;;;;;;;;;;;;;4991762;28;20280;-71
2023/09/12 07:37:43;;;;;;;;;;;;;;;;;;5023295;28;20004;-72
2023/09/12 07:40:09;;;;;;;;;;;;;;;;;;4990752;28;19906;-72
2023/09/12 07:42:35;;;;;;;;;;;;;;;;;;4991937;28;19985;-72
2023/09/12 07:45:02;;;;;;;;;;;;;;;;;;4990473;28;19996;-72
2023/09/12 07:47:28;;;;;;;;;;;;;;;;;;4992258;28;19906;-71
2023/09/12 07:49:54;;;;;;;;;;;;;;;;;;4995811;28;20398;-72
2023/09/12 07:52:20;;;;;;;;;;;;;;;;;;4995811;28;19910;-72
2023/09/12 07:54:46;;;;;;;;;;;;;;;;;;4995527;28;19906;-72
2023/09/12 07:57:12;;;;;;;;;;;;;;;;;;4995690;28;19914;-72
2023/09/12 07:59:37;;;;;;;;;;;;;;;;;;4995533;28;19912;-72
2023/09/12 08:02:03;;;;;;;;;;;;;;;;;;4995630;28;19909;-71
2023/09/12 08:04:29;;;;;;;;;;;;;;;;;;4995346;28;19993;-71
2023/09/12 08:06:55;;;;;;;;;;;;;;;;;;4995302;28;19912;-72
2023/09/12 08:09:21;;;;;;;;;;;;;;;;;;4995255;28;20269;-72
2023/09/12 08:11:47;;;;;;;;;;;;;;;;;;4995068;28;19916;-71
2023/09/12 08:14:13;;;;;;;;;;;;;;;;;;4995075;28;19916;-71
2023/09/12 08:16:39;;;;;;;;;;;;;;;;;;4995100;28;19906;-71
2023/09/12 08:19:05;;;;;;;;;;;;;;;;;;4995188;28;19906;-72
2023/09/12 08:21:31;;;;;;;;;;;;;;;;;;4995289;28;19906;-71
2023/09/12 08:23:56;;;;;;;;;;;;;;;;;;4995175;28;20009;-71
2023/09/12 08:26:22;;;;;;;;;;;;;;;;;;4993689;28;19992;-71
2023/09/12 08:28:48;;;;;;;;;;;;;;;;;;4994867;28;20423;-72
2023/09/12 08:31:14;;;;;;;;;;;;;;;;;;4993765;28;20000;-71
2023/09/12 08:33:40;;;;;;;;;;;;;;;;;;4994473;28;20044;-71
2023/09/12 08:36:06;;;;;;;;;;;;;;;;;;4994648;28;19961;-72
2023/09/12 08:38:32;;;;;;;;;;;;;;;;;;4995143;28;19913;-71
2023/09/12 08:40:58;;;;;;;;;;;;;;;;;;4994832;28;19910;-71
2023/09/12 08:43:24;;;;;;;;;;;;;;;;;;4994833;28;19905;-72
2023/09/12 08:45:50;;;;;;;;;;;;;;;;;;4994725;28;19905;-72
2023/09/12 08:48:15;;;;;;;;;;;;;;;;;;4994849;28;19993;-72
2023/09/12 08:50:42;;;;;;;;;;;;;;;;;;4995117;28;19918;-72
2023/09/12 08:53:07;;;;;;;;;;;;;;;;;;4994672;28;19906;-72
2023/09/12 08:55:35;;;;;;;;;;;;;;;;;;4995254;28;19917;-72
2023/09/12 08:58:01;;;;;;;;;;;;;;;;;;4994495;28;19910;-72
2023/09/12 09:00:27;;;;;;;;;;;;;;;;;;4993937;28;19948;-71
2023/09/12 09:02:53;;;;;;;;;;;;;;;;;;4992812;28;19905;-72
2023/09/12 09:05:18;;;;;;;;;;;;;;;;;;4994080;28;19928;-72
2023/09/12 09:07:44;;;;;;;;;;;;;;;;;;4994306;28;19906;-72
2023/09/12 09:10:10;;;;;;;;;;;;;;;;;;4994280;28;19905;-72
2023/09/12 09:12:36;;;;;;;;;;;;;;;;;;4994218;28;20459;-72
2023/09/12 09:15:02;;;;;;;;;;;;;;;;;;4992893;28;19909;-72
2023/09/12 09:17:28;;;;;;;;;;;;;;;;;;4994010;28;19906;-72
2023/09/12 09:19:54;;;;;;;;;;;;;;;;;;4994185;28;19905;-72
2023/09/12 09:22:20;;;;;;;;;;;;;;;;;;4992891;28;20397;-72
2023/09/12 09:24:46;;;;;;;;;;;;;;;;;;4994001;28;20281;-72
2023/09/12 09:27:12;;;;;;;;;;;;;;;;;;4993901;28;19931;-72
2023/09/12 09:29:38;;;;;;;;;;;;;;;;;;4993940;28;19952;-72
2023/09/12 09:32:05;;;;;;;;;;;;;;;;;;4993733;28;19921;-72
2023/09/12 09:34:31;;;;;;;;;;;;;;;;;;4993561;28;20444;-71
2023/09/12 09:36:57;;;;;;;;;;;;;;;;;;4993466;28;19960;-72
2023/09/12 09:39:23;;;;;;;;;;;;;;;;;;4993387;28;19913;-71
2023/09/12 09:41:49;;;;;;;;;;;;;;;;;;4993703;28;19997;-71
2023/09/12 09:44:16;;;;;;;;;;;;;;;;;;4994088;28;20001;-70
2023/09/12 09:46:41;;;;;;;;;;;;;;;;;;4993228;28;20431;-72
2023/09/12 09:49:07;;;;;;;;;;;;;;;;;;4993315;28;19909;-72
2023/09/12 09:51:33;;;;;;;;;;;;;;;;;;4993421;28;19968;-71
2023/09/12 09:54:00;;;;;;;;;;;;;;;;;;4993145;28;20396;-71
2023/09/12 09:56:26;;;;;;;;;;;;;;;;;;4991853;28;19920;-71
2023/09/12 09:58:52;;;;;;;;;;;;;;;;;;4993323;28;19905;-71
2023/09/12 10:01:21;;;;;;;;;;;;;;;;;;4993063;28;20036;-72
2023/09/12 10:03:50;;;;;;;;;;;;;;;;;;4993098;28;20238;-71
2023/09/12 10:06:16;;;;;;;;;;;;;;;;;;4992942;28;20421;-71
2023/09/12 10:08:42;;;;;;;;;;;;;;;;;;4992941;28;19905;-71
2023/09/12 10:11:08;;;;;;;;;;;;;;;;;;4992267;28;19916;-71
2023/09/12 10:13:34;;;;;;;;;;;;;;;;;;4992673;28;20001;-71
2023/09/12 10:16:00;;;;;;;;;;;;;;;;;;4992307;28;20397;-71
2023/09/12 10:18:26;;;;;;;;;;;;;;;;;;4992765;28;19906;-71
2023/09/12 10:20:52;;;;;;;;;;;;;;;;;;4992951;28;20424;-71
2023/09/12 10:23:18;;;;;;;;;;;;;;;;;;4992394;28;19941;-72
2023/09/12 10:25:44;;;;;;;;;;;;;;;;;;4992502;28;19980;-72
2023/09/12 10:28:10;;;;;;;;;;;;;;;;;;4992801;28;19912;-72
2023/09/12 10:30:36;;;;;;;;;;;;;;;;;;4992234;28;20004;-71
2023/09/12 10:33:02;;;;;;;;;;;;;;;;;;4992909;28;19975;-71
2023/09/12 10:35:28;;;;;;;;;;;;;;;;;;4992386;28;20373;-72
2023/09/12 10:37:54;;;;;;;;;;;;;;;;;;4991318;28;19949;-72
2023/09/12 10:40:20;;;;;;;;;;;;;;;;;;4992634;28;19906;-72
2023/09/12 10:42:46;;;;;;;;;;;;;;;;;;4992435;28;19905;-72
2023/09/12 10:45:13;;;;;;;;;;;;;;;;;;4991981;28;19917;-72
2023/09/12 10:47:39;;;;;;;;;;;;;;;;;;4991044;28;20048;-72
2023/09/12 10:50:07;;;;;;;;;;;;;;;;;;4992200;28;20004;-72
2023/09/12 10:52:38;;;;;;;;;;;;;;;;;;4992272;28;20301;-71
2023/09/12 10:55:03;;;;;;;;;;;;;;;;;;4992616;28;19914;-72
2023/09/12 10:57:29;;;;;;;;;;;;;;;;;;4992490;28;19914;-71
2023/09/12 10:59:55;;;;;;;;;;;;;;;;;;4989807;28;20361;-72
2023/09/12 11:02:22;;;;;;;;;;;;;;;;;;4992158;28;20045;-72
2023/09/12 11:04:48;;;;;;;;;;;;;;;;;;4992133;28;19906;-71
2023/09/12 11:07:14;;;;;;;;;;;;;;;;;;4992910;28;19910;-72
2023/09/12 11:09:39;;;;;;;;;;;;;;;;;;4992314;28;19906;-71
2023/09/12 11:12:07;;;;;;;;;;;;;;;;;;4992401;28;19909;-71
2023/09/12 11:14:33;;;;;;;;;;;;;;;;;;4991931;28;19910;-71
2023/09/12 11:16:59;;;;;;;;;;;;;;;;;;4992289;28;20207;-72
2023/09/12 11:19:26;;;;;;;;;;;;;;;;;;4992305;28;19905;-71
2023/09/12 11:21:52;;;;;;;;;;;;;;;;;;4993148;28;20456;-72
2023/09/12 11:24:18;;;;;;;;;;;;;;;;;;4995291;28;19906;-71
2023/09/12 11:26:44;;;;;;;;;;;;;;;;;;4995771;28;19905;-72
2023/09/12 11:29:10;;;;;;;;;;;;;;;;;;4994306;28;19933;-70
2023/09/12 11:31:37;;;;;;;;;;;;;;;;;;4994013;28;19910;-72
2023/09/12 11:34:03;;;;;;;;;;;;;;;;;;4995105;28;19910;-72
2023/09/12 11:36:29;;;;;;;;;;;;;;;;;;4995619;28;19928;-71
2023/09/12 11:38:55;;;;;;;;;;;;;;;;;;4995701;28;19906;-72
2023/09/12 11:41:21;;;;;;;;;;;;;;;;;;4995303;28;19960;-71
2023/09/12 11:43:48;;;;;;;;;;;;;;;;;;4997060;28;19906;-71
2023/09/12 11:46:14;;;;;;;;;;;;;;;;;;4995431;28;20440;-71
2023/09/12 11:48:40;;;;;;;;;;;;;;;;;;4996628;28;19948;-71
2023/09/12 11:51:06;;;;;;;;;;;;;;;;;;4995687;28;20028;-72
2023/09/12 11:53:35;;;;;;;;;;;;;;;;;;4995370;28;20365;-70
2023/09/12 11:56:01;;;;;;;;;;;;;;;;;;5011286;23;19988;-75
2023/09/12 11:58:27;;;;;;;;;;;;;;;;;;5014851;28;20332;-74
2023/09/12 12:00:53;;;;;;;;;;;;;;;;;;5013717;28;20372;-74
2023/09/12 12:03:19;;;;;;;;;;;;;;;;;;5015145;28;19943;-74
2023/09/12 12:05:45;;;;;;;;;;;;;;;;;;5015176;28;19905;-75
2023/09/12 12:08:11;;;;;;;;;;;;;;;;;;5008491;28;19906;-75
2023/09/12 12:10:39;;;;;;;;;;;;;;;;;;4995295;28;20296;-75
2023/09/12 12:13:04;;;;;;;;;;;;;;;;;;5014065;28;19910;-74
2023/09/12 12:15:30;;;;;;;;;;;;;;;;;;5011834;28;20344;-75
2023/09/12 12:17:56;;;;;;;;;;;;;;;;;;5015139;28;20004;-75
2023/09/12 12:20:22;;;;;;;;;;;;;;;;;;5015079;28;19980;-75
2023/09/12 12:22:48;;;;;;;;;;;;;;;;;;5015312;28;19905;-75
2023/09/12 12:25:14;;;;;;;;;;;;;;;;;;5015131;28;20400;-74
2023/09/12 12:27:40;;;;;;;;;;;;;;;;;;5000612;28;19997;-74
2023/09/12 12:30:06;;;;;;;;;;;;;;;;;;4995365;28;20004;-74
2023/09/12 12:32:32;;;;;;;;;;;;;;;;;;5000212;28;20316;-74
2023/09/12 12:34:58;;;;;;;;;;;;;;;;;;5003135;28;19910;-74
2023/09/12 12:37:25;;;;;;;;;;;;;;;;;;5004183;28;19912;-74
2023/09/12 12:39:51;;;;;;;;;;;;;;;;;;5009321;28;19909;-73
2023/09/12 12:42:18;;;;;;;;;;;;;;;;;;4997133;28;19906;-74
2023/09/12 12:44:45;;;;;;;;;;;;;;;;;;4994786;28;20000;-74
2023/09/12 12:47:11;;;;;;;;;;;;;;;;;;4994851;28;20377;-74
2023/09/12 12:49:40;;;;;;;;;;;;;;;;;;4994796;28;19917;-75
2023/09/12 12:52:06;;;;;;;;;;;;;;;;;;4997545;28;20385;-75
2023/09/12 12:54:35;;;;;;;;;;;;;;;;;;4997089;28;19910;-77
2023/09/12 12:57:02;;;;;;;;;;;;;;;;;;4999259;28;19920;-75
2023/09/12 12:59:29;;;;;;;;;;;;;;;;;;5014061;28;20353;-74
2023/09/12 13:01:55;;;;;;;;;;;;;;;;;;5013518;28;19937;-76
2023/09/12 13:04:21;;;;;;;;;;;;;;;;;;5012323;28;19905;-74
2023/09/12 13:06:47;;;;;;;;;;;;;;;;;;5013801;28;19909;-74
2023/09/12 13:09:13;;;;;;;;;;;;;;;;;;5008209;28;20340;-74
2023/09/12 13:11:39;;;;;;;;;;;;;;;;;;5012926;28;19909;-75
2023/09/12 13:14:11;;;;;;;;;;;;;;;;;;5013850;28;19917;-75
2023/09/12 13:16:39;;;;;;;;;;;;;;;;;;5013707;28;19959;-74
2023/09/12 13:19:05;;;;;;;;;;;;;;;;;;5012671;28;19992;-74
2023/09/12 13:21:35;;;;;;;;;;;;;;;;;;5012611;28;19999;-73
2023/09/12 13:24:01;;;;;;;;;;;;;;;;;;5013820;28;19940;-73
2023/09/12 13:26:27;;;;;;;;;;;;;;;;;;5013430;28;19951;-75
2023/09/12 13:28:52;;;;;;;;;;;;;;;;;;5013691;28;19948;-75
2023/09/12 13:31:18;;;;;;;;;;;;;;;;;;5013500;28;20002;-75
2023/09/12 13:33:44;;;;;;;;;;;;;;;;;;5013391;28;19995;-74
2023/09/12 13:36:10;;;;;;;;;;;;;;;;;;5013473;28;19945;-74
2023/09/12 13:38:36;;;;;;;;;;;;;;;;;;5013404;28;19905;-75
2023/09/12 13:41:02;;;;;;;;;;;;;;;;;;5013415;28;20327;-74
2023/09/12 13:43:28;;;;;;;;;;;;;;;;;;5013344;28;19988;-74
2023/09/12 13:45:54;;;;;;;;;;;;;;;;;;5011341;28;20371;-76
2023/09/12 13:48:20;;;;;;;;;;;;;;;;;;5012193;28;19905;-75
2023/09/12 13:50:46;;;;;;;;;;;;;;;;;;5013130;28;19913;-75
2023/09/12 13:53:12;;;;;;;;;;;;;;;;;;5011818;28;19912;-73
2023/09/12 13:55:38;;;;;;;;;;;;;;;;;;5013274;28;19909;-75
2023/09/12 13:58:04;;;;;;;;;;;;;;;;;;5013117;28;19917;-74
2023/09/12 14:00:30;;;;;;;;;;;;;;;;;;5013219;28;19965;-74
2023/09/12 14:02:56;;;;;;;;;;;;;;;;;;5012941;28;19905;-75
2023/09/12 14:05:21;;;;;;;;;;;;;;;;;;5012835;28;19912;-75
2023/09/12 14:07:55;;;;;;;;;;;;;;;;;;5131946;27;19911;-75
2023/09/12 14:10:21;;;;;;;;;;;;;;;;;;5130245;27;20003;-74
2023/09/12 14:12:46;;;;;;;;;;;;;;;;;;5131392;27;19965;-75
2023/09/12 14:15:14;;;;;;;;;;;;;;;;;;5135104;27;20290;-74
2023/09/12 14:17:40;;;;;;;;;;;;;;;;;;5135158;27;19960;-74
2023/09/12 14:20:05;;;;;;;;;;;;;;;;;;5133779;28;19911;-76
2023/09/12 14:22:31;;;;;;;;;;;;;;;;;;5134437;27;19980;-75
2023/09/12 14:24:57;;;;;;;;;;;;;;;;;;5132550;27;19908;-75
2023/09/12 14:27:23;;;;;;;;;;;;;;;;;;5132804;27;19912;-75
2023/09/12 14:29:50;;;;;;;;;;;;;;;;;;5128993;28;19908;-76
2023/09/12 14:32:16;;;;;;;;;;;;;;;;;;5129841;27;19947;-75
2023/09/12 14:34:43;;;;;;;;;;;;;;;;;;5129497;27;20435;-75
2023/09/12 14:37:09;;;;;;;;;;;;;;;;;;5129846;27;19912;-75
2023/09/12 14:39:35;;;;;;;;;;;;;;;;;;5129834;28;19908;-75
2023/09/12 14:42:05;;;;;;;;;;;;;;;;;;5129820;28;19911;-76
2023/09/12 14:44:33;;;;;;;;;;;;;;;;;;5129650;27;20347;-75
2023/09/12 14:46:59;;;;;;;;;;;;;;;;;;5129361;27;19935;-76
2023/09/12 14:49:25;;;;;;;;;;;;;;;;;;5129638;27;19991;-74
2023/09/12 14:51:51;;;;;;;;;;;;;;;;;;5129584;28;19978;-76
2023/09/12 14:54:17;;;;;;;;;;;;;;;;;;5129189;27;19915;-75
2023/09/12 14:56:43;;;;;;;;;;;;;;;;;;5129317;27;19908;-75
2023/09/12 14:59:09;;;;;;;;;;;;;;;;;;5128149;27;20428;-75
2023/09/12 15:01:35;;;;;;;;;;;;;;;;;;5129217;27;19908;-74
2023/09/12 15:04:01;;;;;;;;;;;;;;;;;;5129204;28;20414;-75
2023/09/12 15:06:27;;;;;;;;;;;;;;;;;;5129302;27;19919;-75
2023/09/12 15:08:52;;;;;;;;;;;;;;;;;;5122487;27;20402;-75
2023/09/12 15:11:18;;;;;;;;;;;;;;;;;;5108645;28;20406;-76
2023/09/12 15:13:45;;;;;;;;;;;;;;;;;;5114018;28;19919;-76
2023/09/12 15:16:11;;;;;;;;;;;;;;;;;;5118782;27;19911;-74
2023/09/12 15:18:40;;;;;;;;;;;;;;;;;;5106181;28;19912;-74
2023/09/12 15:21:06;;;;;;;;;;;;;;;;;;5104564;28;19908;-75
2023/09/12 15:23:32;;;;;;;;;;;;;;;;;;5103335;28;19907;-75
2023/09/12 15:25:58;;;;;;;;;;;;;;;;;;5113127;28;20343;-75
2023/09/12 15:28:23;;;;;;;;;;;;;;;;;;5113918;28;19908;-75
2023/09/12 15:30:49;;;;;;;;;;;;;;;;;;5114336;28;20359;-75
2023/09/12 15:33:15;;;;;;;;;;;;;;;;;;5114829;28;19956;-74
2023/09/12 15:35:41;;;;;;;;;;;;;;;;;;5113297;28;20370;-75
2023/09/12 15:38:07;;;;;;;;;;;;;;;;;;5114900;28;19915;-75
2023/09/12 15:40:33;;;;;;;;;;;;;;;;;;5114834;28;19983;-75
2023/09/12 15:42:59;;;;;;;;;;;;;;;;;;5114550;28;20415;-74
2023/09/12 15:45:25;;;;;;;;;;;;;;;;;;5114999;27;20382;-74
2023/09/12 15:47:51;;;;;;;;;;;;;;;;;;5115774;27;19919;-73
2023/09/12 15:50:17;;;;;;;;;;;;;;;;;;5114861;28;19912;-72
2023/09/12 15:52:43;;;;;;;;;;;;;;;;;;5114613;28;19943;-72
2023/09/12 15:55:09;;;;;;;;;;;;;;;;;;5101293;28;20367;-72
2023/09/12 15:57:37;;;;;;;;;;;;;;;;;;5104155;28;19908;-72
2023/09/12 16:00:06;;;;;;;;;;;;;;;;;;5108414;28;19908;-72
2023/09/12 16:02:32;;;;;;;;;;;;;;;;;;5114599;28;20307;-70
2023/09/12 16:04:58;;;;;;;;;;;;;;;;;;5114715;28;19914;-71
2023/09/12 16:07:24;;;;;;;;;;;;;;;;;;5115477;28;19922;-71
2023/09/12 16:09:50;;;;;;;;;;;;;;;;;;5111177;28;19979;-71
2023/09/12 16:12:16;;;;;;;;;;;;;;;;;;5117975;28;19908;-72
2023/09/12 16:14:41;;;;;;;;;;;;;;;;;;5121860;28;19908;-72
2023/09/12 16:17:07;;;;;;;;;;;;;;;;;;5114518;28;19998;-72
2023/09/12 16:19:33;;;;;;;;;;;;;;;;;;5114370;28;19918;-71
2023/09/12 16:21:59;;;;;;;;;;;;;;;;;;5114269;28;19904;-72
2023/09/12 16:24:25;;;;;;;;;;;;;;;;;;5098973;28;20295;-72
2023/09/12 16:26:51;;;;;;;;;;;;;;;;;;5093491;28;19916;-72
2023/09/12 16:29:17;;;;;;;;;;;;;;;;;;5093163;28;19965;-71
2023/09/12 16:31:43;;;;;;;;;;;;;;;;;;5096597;28;19908;-73
2023/09/12 16:34:09;;;;;;;;;;;;;;;;;;5113317;28;19916;-72
2023/09/12 16:36:35;;;;;;;;;;;;;;;;;;5114081;28;19933;-70
2023/09/12 16:39:00;;;;;;;;;;;;;;;;;;5113141;28;19907;-71
2023/09/12 16:41:26;;;;;;;;;;;;;;;;;;5113858;28;20002;-68